createdAt,value
2018-12-27T00:00:11.439Z,7.10
2018-12-27T00:02:39.863Z,7.10
2018-12-27T00:05:08.268Z,7.10
2018-12-27T00:07:36.698Z,7.10
2018-12-27T00:10:05.848Z,7.10
2018-12-27T00:12:34.287Z,7.10
2018-12-27T00:15:02.772Z,7.10
2018-12-27T00:17:31.222Z,7.10
2018-12-27T00:19:59.648Z,7.10
2018-12-27T00:22:28.097Z,7.00
2018-12-27T00:24:56.503Z,7.00
2018-12-27T00:27:25.176Z,7.00
2018-12-27T00:29:53.853Z,7.00
2018-12-27T00:32:22.447Z,7.00
2018-12-27T00:34:51.021Z,7.00
2018-12-27T00:37:19.579Z,6.90
2018-12-27T00:39:48.187Z,6.90
2018-12-27T00:42:16.750Z,6.90
2018-12-27T00:44:45.336Z,6.90
2018-12-27T00:47:13.972Z,6.90
2018-12-27T00:49:42.555Z,6.90
2018-12-27T00:52:11.139Z,6.90
2018-12-27T00:54:39.949Z,6.80
2018-12-27T00:57:08.539Z,6.80
2018-12-27T00:59:37.095Z,6.80
2018-12-27T01:02:05.937Z,6.80
2018-12-27T01:04:34.515Z,6.80
2018-12-27T01:07:03.180Z,6.80
2018-12-27T01:09:31.867Z,6.70
2018-12-27T01:12:00.412Z,6.70
2018-12-27T01:14:28.995Z,6.70
2018-12-27T01:16:57.564Z,6.70
2018-12-27T01:19:26.412Z,6.70
2018-12-27T01:21:54.968Z,6.70
2018-12-27T01:24:23.544Z,6.60
2018-12-27T01:26:52.116Z,6.70
2018-12-27T01:29:20.704Z,6.60
2018-12-27T01:31:50.732Z,6.60
2018-12-27T01:34:19.443Z,6.60
2018-12-27T01:36:48.023Z,6.60
2018-12-27T01:39:16.571Z,6.60
2018-12-27T01:41:45.384Z,6.70
2018-12-27T01:44:13.948Z,6.60
2018-12-27T01:46:42.528Z,6.60
2018-12-27T01:49:11.094Z,6.60
2018-12-27T01:51:39.685Z,6.60
2018-12-27T01:54:08.248Z,6.60
2018-12-27T01:56:36.845Z,6.60
2018-12-27T01:59:05.412Z,6.60
2018-12-27T02:01:33.995Z,6.60
2018-12-27T02:04:02.579Z,6.50
2018-12-27T02:06:31.181Z,6.50
2018-12-27T02:08:59.848Z,6.50
2018-12-27T02:11:28.451Z,6.50
2018-12-27T02:13:57.036Z,6.50
2018-12-27T02:16:25.618Z,6.50
2018-12-27T02:18:54.207Z,6.50
2018-12-27T02:21:22.827Z,6.50
2018-12-27T02:23:51.394Z,6.50
2018-12-27T02:26:19.971Z,6.40
2018-12-27T02:28:48.538Z,6.40
2018-12-27T02:31:17.141Z,6.40
2018-12-27T02:33:45.712Z,6.40
2018-12-27T02:36:14.303Z,6.40
2018-12-27T02:38:42.883Z,6.40
2018-12-27T02:41:11.467Z,6.40
2018-12-27T02:43:40.063Z,6.40
2018-12-27T02:46:08.714Z,6.30
2018-12-27T02:48:37.310Z,6.30
2018-12-27T02:51:05.880Z,6.30
2018-12-27T02:53:34.478Z,6.30
2018-12-27T02:56:03.041Z,6.30
2018-12-27T02:58:31.603Z,6.30
2018-12-27T03:01:00.193Z,6.30
2018-12-27T03:03:28.740Z,6.30
2018-12-27T03:05:57.319Z,6.20
2018-12-27T03:08:25.915Z,6.20
2018-12-27T03:10:54.508Z,6.20
2018-12-27T03:13:23.132Z,6.20
2018-12-27T03:15:51.703Z,6.20
2018-12-27T03:18:20.529Z,6.20
2018-12-27T03:20:49.129Z,6.10
2018-12-27T03:23:17.695Z,6.20
2018-12-27T03:25:46.287Z,6.10
2018-12-27T03:28:14.864Z,6.10
2018-12-27T03:30:43.464Z,6.10
2018-12-27T03:33:12.010Z,6.10
2018-12-27T03:35:40.598Z,6.00
2018-12-27T03:38:09.405Z,6.00
2018-12-27T03:40:37.987Z,6.00
2018-12-27T03:43:06.566Z,6.00
2018-12-27T03:45:35.160Z,6.00
2018-12-27T03:48:03.695Z,5.90
2018-12-27T03:50:32.287Z,5.90
2018-12-27T03:53:00.850Z,5.90
2018-12-27T03:55:29.417Z,5.90
2018-12-27T03:57:58.003Z,5.90
2018-12-27T04:00:26.567Z,5.90
2018-12-27T04:02:55.172Z,5.90
2018-12-27T04:05:23.976Z,5.90
2018-12-27T04:07:52.558Z,5.90
2018-12-27T04:10:21.144Z,5.90
2018-12-27T04:12:49.701Z,5.80
2018-12-27T04:15:18.126Z,5.80
2018-12-27T04:17:46.535Z,5.80
2018-12-27T04:20:14.941Z,5.80
2018-12-27T04:22:43.371Z,5.80
2018-12-27T04:25:12.192Z,5.80
2018-12-27T04:27:40.588Z,5.80
2018-12-27T04:30:09.023Z,5.80
2018-12-27T04:32:38.197Z,5.80
2018-12-27T04:35:06.760Z,5.80
2018-12-27T04:37:35.174Z,5.80
2018-12-27T04:40:04.288Z,5.80
2018-12-27T04:42:33.040Z,5.80
2018-12-27T04:45:01.458Z,5.80
2018-12-27T04:47:29.884Z,5.80
2018-12-27T04:49:58.288Z,5.70
2018-12-27T04:52:26.732Z,5.70
2018-12-27T04:54:55.147Z,5.70
2018-12-27T04:57:23.570Z,5.70
2018-12-27T04:59:52.004Z,5.80
2018-12-27T05:02:20.439Z,5.80
2018-12-27T05:04:48.837Z,5.80
2018-12-27T05:07:17.259Z,5.80
2018-12-27T05:09:45.675Z,5.80
2018-12-27T05:12:14.122Z,5.80
2018-12-27T05:14:42.593Z,5.80
2018-12-27T05:17:11.018Z,5.80
2018-12-27T05:19:39.422Z,5.80
2018-12-27T05:22:07.844Z,5.80
2018-12-27T05:24:36.252Z,5.80
2018-12-27T05:27:04.673Z,5.80
2018-12-27T05:29:33.091Z,5.80
2018-12-27T05:32:01.508Z,5.80
2018-12-27T05:34:29.951Z,5.80
2018-12-27T05:36:58.367Z,5.80
2018-12-27T05:39:26.788Z,5.80
2018-12-27T05:41:55.191Z,5.80
2018-12-27T05:44:23.615Z,5.80
2018-12-27T05:46:52.052Z,5.80
2018-12-27T05:49:20.487Z,5.80
2018-12-27T05:51:49.137Z,5.80
2018-12-27T05:54:17.583Z,5.80
2018-12-27T05:56:45.997Z,5.80
2018-12-27T05:59:14.403Z,5.80
2018-12-27T06:01:42.843Z,5.80
2018-12-27T06:04:11.260Z,5.80
2018-12-27T06:06:39.904Z,5.80
2018-12-27T06:09:08.342Z,5.80
2018-12-27T06:11:36.747Z,5.80
2018-12-27T06:14:05.187Z,5.80
2018-12-27T06:16:33.588Z,5.80
2018-12-27T06:19:02.012Z,5.80
2018-12-27T06:21:30.465Z,5.80
2018-12-27T06:23:58.853Z,5.80
2018-12-27T06:26:27.268Z,5.80
2018-12-27T06:28:55.699Z,5.80
2018-12-27T06:31:24.112Z,5.80
2018-12-27T06:33:52.549Z,5.80
2018-12-27T06:36:20.968Z,5.90
2018-12-27T06:38:49.416Z,5.80
2018-12-27T06:41:17.851Z,5.90
2018-12-27T06:43:46.275Z,5.80
2018-12-27T06:46:14.933Z,5.80
2018-12-27T06:48:43.334Z,5.80
2018-12-27T06:51:11.769Z,5.90
2018-12-27T06:53:40.173Z,5.90
2018-12-27T06:56:08.587Z,5.90
2018-12-27T06:58:37.827Z,5.90
2018-12-27T07:01:06.496Z,5.90
2018-12-27T07:03:34.903Z,5.90
2018-12-27T07:06:03.333Z,5.90
2018-12-27T07:08:31.733Z,5.90
2018-12-27T07:11:00.178Z,5.90
2018-12-27T07:13:28.640Z,5.90
2018-12-27T07:15:57.104Z,5.90
2018-12-27T07:18:25.519Z,5.90
2018-12-27T07:20:53.955Z,5.90
2018-12-27T07:23:22.635Z,5.90
2018-12-27T07:25:51.049Z,5.90
2018-12-27T07:28:19.456Z,5.90
2018-12-27T07:30:47.963Z,5.90
2018-12-27T07:33:16.411Z,5.90
2018-12-27T07:35:44.795Z,6.00
2018-12-27T07:38:13.288Z,6.00
2018-12-27T07:40:41.739Z,6.00
2018-12-27T07:43:10.148Z,6.00
2018-12-27T07:45:38.572Z,6.00
2018-12-27T07:48:07.000Z,6.00
2018-12-27T07:50:35.432Z,6.00
2018-12-27T07:53:03.859Z,6.10
2018-12-27T07:55:32.287Z,6.10
2018-12-27T07:58:00.710Z,6.10
2018-12-27T08:00:29.112Z,6.10
2018-12-27T08:02:57.547Z,6.10
2018-12-27T08:05:26.220Z,6.10
2018-12-27T08:07:54.645Z,6.10
2018-12-27T08:10:23.104Z,6.10
2018-12-27T08:12:51.517Z,6.10
2018-12-27T08:15:19.913Z,6.10
2018-12-27T08:17:48.340Z,6.10
2018-12-27T08:20:16.759Z,6.10
2018-12-27T08:22:45.171Z,6.10
2018-12-27T08:25:13.607Z,6.10
2018-12-27T08:27:42.004Z,6.10
2018-12-27T08:30:10.517Z,6.10
2018-12-27T08:32:38.947Z,6.10
2018-12-27T08:35:11.424Z,6.10
2018-12-27T08:37:37.560Z,6.10
2018-12-27T08:40:06.178Z,6.10
2018-12-27T08:42:34.572Z,6.20
2018-12-27T08:45:03.567Z,6.10
2018-12-27T08:47:31.991Z,6.20
2018-12-27T08:50:00.406Z,6.20
2018-12-27T08:52:28.838Z,6.20
2018-12-27T08:54:57.288Z,6.20
2018-12-27T08:57:25.758Z,6.20
2018-12-27T08:59:54.168Z,6.20
2018-12-27T09:02:23.793Z,6.20
2018-12-27T09:04:52.236Z,6.20
2018-12-27T09:07:20.750Z,6.10
2018-12-27T09:09:49.188Z,6.10
2018-12-27T09:12:17.621Z,6.10
2018-12-27T09:14:46.034Z,6.10
2018-12-27T09:17:14.456Z,6.10
2018-12-27T09:19:42.869Z,6.10
2018-12-27T09:22:11.314Z,6.10
2018-12-27T09:24:39.716Z,6.10
2018-12-27T09:27:08.157Z,6.10
2018-12-27T09:29:36.560Z,6.10
2018-12-27T09:32:04.997Z,6.10
2018-12-27T09:34:33.415Z,6.10
2018-12-27T09:37:01.835Z,6.10
2018-12-27T09:39:30.257Z,6.10
2018-12-27T09:41:58.692Z,6.10
2018-12-27T09:44:27.106Z,6.20
2018-12-27T09:46:55.541Z,6.20
2018-12-27T09:49:24.011Z,6.20
2018-12-27T09:51:52.446Z,6.20
2018-12-27T09:54:20.880Z,6.20
2018-12-27T09:56:49.279Z,6.20
2018-12-27T09:59:19.540Z,6.20
2018-12-27T10:01:48.012Z,6.20
2018-12-27T10:04:16.753Z,6.20
2018-12-27T10:06:45.183Z,6.20
2018-12-27T10:09:13.613Z,6.20
2018-12-27T10:11:42.023Z,6.20
2018-12-27T10:14:10.448Z,6.20
2018-12-27T10:16:38.889Z,6.20
2018-12-27T10:19:07.325Z,6.20
2018-12-27T10:21:35.785Z,6.20
2018-12-27T10:24:04.196Z,6.20
2018-12-27T10:26:32.607Z,6.20
2018-12-27T10:29:01.047Z,6.20
2018-12-27T10:31:29.486Z,6.20
2018-12-27T10:33:57.891Z,6.30
2018-12-27T10:36:26.315Z,6.20
2018-12-27T10:38:57.100Z,6.20
2018-12-27T10:41:25.513Z,6.30
2018-12-27T10:43:53.948Z,6.20
2018-12-27T10:46:22.372Z,6.20
2018-12-27T10:48:50.783Z,6.20
2018-12-27T10:51:19.228Z,6.30
2018-12-27T10:53:47.640Z,6.20
2018-12-27T10:56:16.097Z,6.30
2018-12-27T10:58:44.542Z,6.30
2018-12-27T11:01:13.772Z,6.30
2018-12-27T11:03:42.256Z,6.30
2018-12-27T11:06:10.680Z,6.30
2018-12-27T11:08:39.120Z,6.30
2018-12-27T11:11:07.527Z,6.30
2018-12-27T11:13:35.976Z,6.30
2018-12-27T11:16:04.404Z,6.30
2018-12-27T11:18:32.826Z,6.30
2018-12-27T11:21:01.236Z,6.30
2018-12-27T11:23:29.668Z,6.30
2018-12-27T11:25:58.075Z,6.40
2018-12-27T11:28:26.516Z,6.40
2018-12-27T11:30:58.064Z,6.40
2018-12-27T11:33:26.825Z,6.40
2018-12-27T11:35:55.872Z,6.40
2018-12-27T11:38:24.505Z,6.40
2018-12-27T11:40:53.181Z,6.40
2018-12-27T11:43:21.651Z,6.40
2018-12-27T11:45:50.092Z,6.40
2018-12-27T11:48:18.503Z,6.40
2018-12-27T11:50:46.940Z,6.50
2018-12-27T11:53:15.339Z,6.50
2018-12-27T11:55:44.369Z,6.50
2018-12-27T11:58:12.813Z,6.50
2018-12-27T12:00:41.222Z,6.50
2018-12-27T12:03:09.660Z,6.50
2018-12-27T12:05:38.093Z,6.50
2018-12-27T12:08:06.753Z,6.60
2018-12-27T12:10:35.452Z,6.60
2018-12-27T12:13:03.895Z,6.50
2018-12-27T12:15:32.549Z,6.60
2018-12-27T12:18:01.054Z,6.60
2018-12-27T12:20:29.460Z,6.60
2018-12-27T12:22:57.907Z,6.60
2018-12-27T12:25:26.319Z,6.60
2018-12-27T12:27:54.766Z,6.60
2018-12-27T12:30:23.176Z,6.60
2018-12-27T12:32:51.579Z,6.60
2018-12-27T12:35:20.025Z,6.60
2018-12-27T12:37:48.763Z,6.60
2018-12-27T12:40:17.194Z,6.60
2018-12-27T12:42:45.596Z,6.60
2018-12-27T12:45:14.044Z,6.70
2018-12-27T12:47:42.447Z,6.70
2018-12-27T12:50:11.874Z,6.70
2018-12-27T12:52:40.288Z,6.70
2018-12-27T12:55:08.717Z,6.70
2018-12-27T12:57:37.147Z,6.70
2018-12-27T13:00:08.590Z,6.70
2018-12-27T13:02:37.021Z,6.70
2018-12-27T13:05:06.017Z,6.70
2018-12-27T13:07:35.674Z,6.80
2018-12-27T13:10:04.504Z,6.80
2018-12-27T13:12:32.935Z,6.80
2018-12-27T13:15:01.612Z,6.80
2018-12-27T13:17:30.067Z,6.80
2018-12-27T13:19:58.478Z,6.80
2018-12-27T13:22:27.444Z,6.90
2018-12-27T13:24:55.900Z,6.90
2018-12-27T13:27:24.311Z,6.90
2018-12-27T13:29:53.000Z,6.90
2018-12-27T13:32:21.441Z,6.90
2018-12-27T13:34:49.881Z,6.90
2018-12-27T13:37:18.300Z,6.90
2018-12-27T13:39:46.699Z,6.90
2018-12-27T13:42:15.132Z,6.90
2018-12-27T13:44:44.271Z,6.90
2018-12-27T13:47:12.830Z,6.90
2018-12-27T13:49:41.381Z,6.90
2018-12-27T13:52:09.791Z,6.90
2018-12-27T13:54:38.217Z,6.90
2018-12-27T13:57:06.619Z,6.90
2018-12-27T13:59:35.048Z,6.90
2018-12-27T14:02:04.196Z,6.90
2018-12-27T14:04:33.920Z,6.90
2018-12-27T14:07:02.400Z,6.90
2018-12-27T14:09:31.548Z,6.90
2018-12-27T14:12:00.940Z,6.90
2018-12-27T14:14:29.364Z,6.90
2018-12-27T14:16:57.800Z,6.90
2018-12-27T14:19:26.204Z,6.90
2018-12-27T14:21:54.612Z,6.90
2018-12-27T14:24:23.040Z,6.90
2018-12-27T14:26:51.462Z,6.90
2018-12-27T14:29:19.902Z,6.80
2018-12-27T14:31:48.305Z,6.80
2018-12-27T14:34:16.816Z,6.80
2018-12-27T14:36:45.234Z,6.80
2018-12-27T14:39:13.668Z,6.80
2018-12-27T14:41:42.103Z,6.90
2018-12-27T14:44:10.512Z,6.90
2018-12-27T14:46:38.965Z,6.80
2018-12-27T14:49:07.395Z,6.80
2018-12-27T14:51:35.896Z,6.80
2018-12-27T14:54:04.323Z,6.80
2018-12-27T14:56:32.728Z,6.80
2018-12-27T14:59:02.392Z,6.80
2018-12-27T15:01:32.518Z,6.80
2018-12-27T15:04:01.094Z,6.80
2018-12-27T15:06:29.511Z,6.80
2018-12-27T15:08:57.956Z,6.80
2018-12-27T15:11:27.805Z,6.80
2018-12-27T15:13:56.308Z,6.80
2018-12-27T15:16:25.883Z,6.80
2018-12-27T15:18:54.291Z,6.80
2018-12-27T15:21:22.752Z,6.80
2018-12-27T15:23:51.242Z,6.80
2018-12-27T15:26:19.684Z,6.80
2018-12-27T15:28:48.367Z,6.80
2018-12-27T15:31:16.841Z,6.80
2018-12-27T15:33:46.217Z,6.80
2018-12-27T15:36:14.952Z,6.80
2018-12-27T15:38:44.629Z,6.80
2018-12-27T15:41:13.055Z,6.80
2018-12-27T15:43:41.512Z,6.80
2018-12-27T15:46:09.921Z,6.80
2018-12-27T15:48:38.372Z,6.80
2018-12-27T15:51:06.884Z,6.80
2018-12-27T15:53:35.349Z,6.80
2018-12-27T15:56:04.448Z,6.80
2018-12-27T15:58:32.928Z,6.80
2018-12-27T16:01:03.923Z,6.80
2018-12-27T16:03:36.232Z,6.80
2018-12-27T16:06:06.260Z,6.80
2018-12-27T16:08:34.671Z,6.80
2018-12-27T16:11:04.135Z,6.80
2018-12-27T16:13:32.524Z,6.70
2018-12-27T16:16:00.992Z,6.80
2018-12-27T16:18:29.392Z,6.70
2018-12-27T16:20:57.839Z,6.70
2018-12-27T16:23:26.259Z,6.70
2018-12-27T16:25:54.685Z,6.70
2018-12-27T16:28:23.101Z,6.70
2018-12-27T16:30:51.534Z,6.70
2018-12-27T16:33:19.964Z,6.70
2018-12-27T16:35:48.365Z,6.70
2018-12-27T16:38:17.043Z,6.70
2018-12-27T16:40:45.428Z,6.70
2018-12-27T16:43:13.871Z,6.70
2018-12-27T16:45:42.315Z,6.70
2018-12-27T16:48:10.778Z,6.70
2018-12-27T16:50:40.784Z,6.70
2018-12-27T16:53:09.235Z,6.70
2018-12-27T16:55:38.333Z,6.70
2018-12-27T16:58:06.860Z,6.70
2018-12-27T17:00:35.340Z,6.60
2018-12-27T17:03:07.509Z,6.60
2018-12-27T17:05:35.958Z,6.60
2018-12-27T17:08:04.437Z,6.60
2018-12-27T17:10:32.848Z,6.60
2018-12-27T17:13:01.294Z,6.60
2018-12-27T17:15:29.951Z,6.60
2018-12-27T17:17:58.380Z,6.60
2018-12-27T17:20:26.807Z,6.60
2018-12-27T17:22:55.472Z,6.60
2018-12-27T17:25:23.892Z,6.60
2018-12-27T17:27:52.309Z,6.60
2018-12-27T17:30:20.792Z,6.60
2018-12-27T17:32:49.191Z,6.60
2018-12-27T17:35:17.864Z,6.60
2018-12-27T17:37:46.311Z,6.60
2018-12-27T17:40:14.732Z,6.60
2018-12-27T17:42:43.167Z,6.60
2018-12-27T17:45:11.601Z,6.60
2018-12-27T17:47:40.072Z,6.60
2018-12-27T17:50:08.495Z,6.60
2018-12-27T17:52:36.923Z,6.60
2018-12-27T17:55:05.391Z,6.60
2018-12-27T17:57:33.829Z,6.60
2018-12-27T18:00:02.354Z,6.60
2018-12-27T18:02:30.756Z,6.60
2018-12-27T18:04:59.187Z,6.60
2018-12-27T18:07:30.688Z,6.60
2018-12-27T18:09:57.732Z,6.60
2018-12-27T18:12:26.415Z,6.60
2018-12-27T18:14:59.664Z,6.60
2018-12-27T18:17:28.100Z,6.60
2018-12-27T18:19:56.552Z,6.60
2018-12-27T18:22:26.491Z,6.60
2018-12-27T18:24:55.174Z,6.60
2018-12-27T18:27:25.191Z,6.60
2018-12-27T18:29:53.618Z,6.60
2018-12-27T18:32:23.785Z,6.60
2018-12-27T18:34:52.263Z,6.60
2018-12-27T18:37:20.688Z,6.70
2018-12-27T18:39:49.115Z,6.70
2018-12-27T18:42:17.562Z,6.60
2018-12-27T18:44:45.992Z,6.60
2018-12-27T18:47:14.434Z,6.60
2018-12-27T18:49:42.859Z,6.60
2018-12-27T18:52:11.281Z,6.70
2018-12-27T18:54:39.712Z,6.70
2018-12-27T18:57:08.159Z,6.70
2018-12-27T18:59:36.589Z,6.60
2018-12-27T19:02:05.023Z,6.70
2018-12-27T19:04:33.424Z,6.60
2018-12-27T19:07:01.876Z,6.60
2018-12-27T19:09:30.292Z,6.60
2018-12-27T19:12:34.608Z,6.60
2018-12-27T19:15:03.875Z,6.60
2018-12-27T19:17:34.549Z,6.60
2018-12-27T19:20:02.971Z,6.60
2018-12-27T19:22:34.543Z,6.70
2018-12-27T19:25:02.962Z,6.60
2018-12-27T19:27:31.453Z,6.60
2018-12-27T19:30:00.197Z,6.60
2018-12-27T19:32:28.600Z,6.60
2018-12-27T19:34:57.037Z,6.60
2018-12-27T19:37:25.445Z,6.60
2018-12-27T19:39:53.895Z,6.60
2018-12-27T19:42:22.304Z,6.60
2018-12-27T19:44:50.758Z,6.60
2018-12-27T19:47:19.183Z,6.60
2018-12-27T19:49:47.615Z,6.60
2018-12-27T19:52:16.053Z,6.60
2018-12-27T19:54:44.470Z,6.60
2018-12-27T19:57:12.891Z,6.60
2018-12-27T19:59:41.380Z,6.60
2018-12-27T20:02:09.841Z,6.60
2018-12-27T20:04:38.251Z,6.60
2018-12-27T20:07:06.764Z,6.60
2018-12-27T20:09:35.191Z,6.60
2018-12-27T20:12:03.888Z,6.60
2018-12-27T20:14:33.903Z,6.60
2018-12-27T20:17:02.349Z,6.60
2018-12-27T20:19:30.778Z,6.60
2018-12-27T20:21:59.252Z,6.60
2018-12-27T20:24:27.660Z,6.60
2018-12-27T20:26:56.100Z,6.60
2018-12-27T20:29:24.617Z,6.60
2018-12-27T20:31:53.040Z,6.60
2018-12-27T20:34:21.449Z,6.60
2018-12-27T20:36:49.892Z,6.60
2018-12-27T20:39:18.287Z,6.60
2018-12-27T20:41:46.755Z,6.60
2018-12-27T20:44:15.182Z,6.60
2018-12-27T20:46:43.636Z,6.60
2018-12-27T20:49:12.036Z,6.60
2018-12-27T20:51:40.472Z,6.60
2018-12-27T20:54:08.876Z,6.70
2018-12-27T20:56:37.304Z,6.70
2018-12-27T20:59:05.744Z,6.60
2018-12-27T21:01:34.147Z,6.60
2018-12-27T21:04:02.588Z,6.60
2018-12-27T21:06:31.036Z,6.60
2018-12-27T21:08:59.459Z,6.60
2018-12-27T21:11:27.888Z,6.60
2018-12-27T21:13:56.340Z,6.60
2018-12-27T21:16:24.767Z,6.60
2018-12-27T21:18:53.232Z,6.60
2018-12-27T21:21:21.668Z,6.60
2018-12-27T21:23:50.071Z,6.60
2018-12-27T21:26:20.048Z,6.60
2018-12-27T21:28:48.451Z,6.60
2018-12-27T21:31:16.891Z,6.60
2018-12-27T21:33:45.305Z,6.60
2018-12-27T21:36:14.039Z,6.70
2018-12-27T21:38:42.576Z,6.60
2018-12-27T21:41:11.924Z,6.60
2018-12-27T21:43:40.363Z,6.60
2018-12-27T21:46:08.824Z,6.70
2018-12-27T21:48:37.229Z,6.60
2018-12-27T21:51:05.645Z,6.60
2018-12-27T21:53:34.383Z,6.60
2018-12-27T21:56:02.853Z,6.60
2018-12-27T21:58:31.276Z,6.60
2018-12-27T22:00:59.731Z,6.60
2018-12-27T22:03:28.176Z,6.60
2018-12-27T22:05:56.606Z,6.60
2018-12-27T22:08:28.445Z,6.60
2018-12-27T22:10:55.275Z,6.60
2018-12-27T22:13:24.273Z,6.60
2018-12-27T22:15:53.349Z,6.60
2018-12-27T22:18:22.005Z,6.60
2018-12-27T22:20:50.436Z,6.60
2018-12-27T22:23:18.836Z,6.60
2018-12-27T22:25:47.497Z,6.60
2018-12-27T22:28:15.923Z,6.60
2018-12-27T22:30:44.368Z,6.60
2018-12-27T22:33:12.812Z,6.60
2018-12-27T22:35:41.240Z,6.60
2018-12-27T22:38:09.660Z,6.60
2018-12-27T22:40:38.079Z,6.60
2018-12-27T22:43:06.541Z,6.60
2018-12-27T22:45:34.971Z,6.60
2018-12-27T22:48:03.420Z,6.70
2018-12-27T22:50:31.824Z,6.60
2018-12-27T22:53:00.259Z,6.60
2018-12-27T22:55:28.673Z,6.70
2018-12-27T22:57:57.103Z,6.70
2018-12-27T23:00:27.823Z,6.70
2018-12-27T23:02:56.281Z,6.70
2018-12-27T23:05:24.709Z,6.70
2018-12-27T23:07:53.129Z,6.70
2018-12-27T23:10:21.574Z,6.70
2018-12-27T23:12:50.007Z,6.70
2018-12-27T23:15:18.415Z,6.60
2018-12-27T23:17:47.076Z,6.70
2018-12-27T23:20:15.480Z,6.70
2018-12-27T23:22:45.550Z,6.70
2018-12-27T23:25:14.199Z,6.70
2018-12-27T23:27:42.641Z,6.70
2018-12-27T23:30:11.071Z,6.70
2018-12-27T23:32:39.496Z,6.70
2018-12-27T23:35:09.160Z,6.70
2018-12-27T23:37:37.575Z,6.60
2018-12-27T23:40:06.701Z,6.70
2018-12-27T23:42:35.349Z,6.70
2018-12-27T23:45:04.098Z,6.70
2018-12-27T23:47:32.508Z,6.70
2018-12-27T23:50:01.504Z,6.70
2018-12-27T23:52:29.963Z,6.70
2018-12-27T23:54:58.394Z,6.70
2018-12-27T23:57:26.812Z,6.70
2018-12-27T23:59:55.224Z,6.70
